createdAt,value
2018-07-12T00:02:16.971Z,4.87
2018-07-12T00:04:44.805Z,4.70
2018-07-12T00:07:12.672Z,4.43
2018-07-12T00:09:40.774Z,4.00
2018-07-12T00:12:08.768Z,3.93
2018-07-12T00:14:36.475Z,3.87
2018-07-12T00:17:04.546Z,3.80
2018-07-12T00:19:32.411Z,4.07
2018-07-12T00:22:00.411Z,4.20
2018-07-12T00:24:28.556Z,4.13
2018-07-12T00:26:56.655Z,4.47
2018-07-12T00:29:24.804Z,4.17
2018-07-12T00:31:53.180Z,4.30
2018-07-12T00:34:21.491Z,4.10
2018-07-12T00:36:49.323Z,4.17
2018-07-12T00:39:17.194Z,4.33
2018-07-12T00:41:45.217Z,4.43
2018-07-12T00:44:13.054Z,4.30
2018-07-12T00:46:40.992Z,4.17
2018-07-12T00:49:09.185Z,3.87
2018-07-12T00:51:36.909Z,4.20
2018-07-12T00:54:04.801Z,3.77
2018-07-12T00:56:32.795Z,3.83
2018-07-12T00:59:00.645Z,3.90
2018-07-12T01:01:28.653Z,4.33
2018-07-12T01:03:56.692Z,4.30
2018-07-12T01:06:24.923Z,3.97
2018-07-12T01:08:52.873Z,3.90
2018-07-12T01:11:20.683Z,3.80
2018-07-12T01:13:48.821Z,4.10
2018-07-12T01:16:16.529Z,3.67
2018-07-12T01:18:44.346Z,3.77
2018-07-12T01:21:12.370Z,3.80
2018-07-12T01:23:40.419Z,3.67
2018-07-12T01:26:08.313Z,3.90
2018-07-12T01:28:36.152Z,3.70
2018-07-12T01:31:04.329Z,3.53
2018-07-12T01:33:32.432Z,3.73
2018-07-12T01:36:00.325Z,3.50
2018-07-12T01:38:28.566Z,4.10
2018-07-12T01:40:56.407Z,3.40
2018-07-12T01:43:24.173Z,3.87
2018-07-12T01:45:52.245Z,3.60
2018-07-12T01:48:20.108Z,3.73
2018-07-12T01:50:48.024Z,3.63
2018-07-12T01:53:16.076Z,3.90
2018-07-12T01:55:43.826Z,3.83
2018-07-12T01:58:11.677Z,3.53
2018-07-12T02:00:39.935Z,3.33
2018-07-12T02:03:07.688Z,3.63
2018-07-12T02:05:35.584Z,4.00
2018-07-12T02:08:03.841Z,3.90
2018-07-12T02:10:31.931Z,3.93
2018-07-12T02:13:00.280Z,3.50
2018-07-12T02:15:28.181Z,3.10
2018-07-12T02:17:56.254Z,3.40
2018-07-12T02:20:24.180Z,3.60
2018-07-12T02:22:52.191Z,4.10
2018-07-12T02:25:20.608Z,3.83
2018-07-12T02:27:48.709Z,3.93
2018-07-12T02:30:16.638Z,3.57
2018-07-12T02:32:44.471Z,3.50
2018-07-12T02:35:12.853Z,3.93
2018-07-12T02:37:40.653Z,3.70
2018-07-12T02:40:08.502Z,3.90
2018-07-12T02:42:36.769Z,3.77
2018-07-12T02:45:04.673Z,3.30
2018-07-12T02:47:32.489Z,3.40
2018-07-12T02:50:00.460Z,3.80
2018-07-12T02:52:28.326Z,3.30
2018-07-12T02:54:56.295Z,3.60
2018-07-12T02:57:24.467Z,3.43
2018-07-12T02:59:52.542Z,4.00
2018-07-12T03:02:20.363Z,3.60
2018-07-12T03:04:48.456Z,3.60
2018-07-12T03:07:16.581Z,3.53
2018-07-12T03:09:44.417Z,3.50
2018-07-12T03:12:12.285Z,3.73
2018-07-12T03:14:40.527Z,3.97
2018-07-12T03:17:08.658Z,4.07
2018-07-12T03:19:36.883Z,3.90
2018-07-12T03:22:04.864Z,3.70
2018-07-12T03:24:32.942Z,3.40
2018-07-12T03:27:00.804Z,3.80
2018-07-12T03:29:28.731Z,3.63
2018-07-12T03:31:56.853Z,3.30
2018-07-12T03:34:24.828Z,3.87
2018-07-12T03:36:52.813Z,4.27
2018-07-12T03:39:20.879Z,3.90
2018-07-12T03:41:48.648Z,4.03
2018-07-12T03:44:16.427Z,3.83
2018-07-12T03:46:44.483Z,4.10
2018-07-12T03:49:12.318Z,4.07
2018-07-12T03:51:40.186Z,3.87
2018-07-12T03:54:08.376Z,4.43
2018-07-12T03:56:36.331Z,3.70
2018-07-12T03:59:04.203Z,4.03
2018-07-12T04:01:32.477Z,3.80
2018-07-12T04:04:00.425Z,3.80
2018-07-12T04:06:28.410Z,3.90
2018-07-12T04:08:56.375Z,3.83
2018-07-12T04:11:24.228Z,4.20
2018-07-12T04:13:52.466Z,3.83
2018-07-12T04:16:20.537Z,3.97
2018-07-12T04:18:48.704Z,3.87
2018-07-12T04:21:16.801Z,3.87
2018-07-12T04:23:45.371Z,4.47
2018-07-12T04:26:13.546Z,4.30
2018-07-12T04:28:41.627Z,4.47
2018-07-12T04:31:09.633Z,3.57
2018-07-12T04:33:37.713Z,3.73
2018-07-12T04:36:05.775Z,3.73
2018-07-12T04:38:33.644Z,3.47
2018-07-12T04:41:01.508Z,3.80
2018-07-12T04:43:29.538Z,4.10
2018-07-12T04:45:57.295Z,3.40
2018-07-12T04:48:25.037Z,3.97
2018-07-12T04:50:53.279Z,4.07
2018-07-12T04:53:21.248Z,3.63
2018-07-12T04:55:49.040Z,3.83
2018-07-12T04:58:17.266Z,3.80
2018-07-12T05:00:45.928Z,3.73
2018-07-12T05:03:13.742Z,3.80
2018-07-12T05:05:41.806Z,3.87
2018-07-12T05:08:09.885Z,3.97
2018-07-12T05:10:37.868Z,4.03
2018-07-12T05:13:05.818Z,4.23
2018-07-12T05:15:33.892Z,4.40
2018-07-12T05:18:01.762Z,4.50
2018-07-12T05:20:29.727Z,3.30
2018-07-12T05:22:57.903Z,3.40
2018-07-12T05:25:25.767Z,3.90
2018-07-12T05:27:53.635Z,4.10
2018-07-12T05:30:21.702Z,3.93
2018-07-12T05:32:49.572Z,3.87
2018-07-12T05:35:17.539Z,4.03
2018-07-12T05:37:47.575Z,4.10
2018-07-12T05:40:17.795Z,4.43
2018-07-12T05:42:48.040Z,4.13
2018-07-12T05:45:18.099Z,4.30
2018-07-12T05:47:47.890Z,4.33
2018-07-12T05:50:17.391Z,3.70
2018-07-12T05:52:47.497Z,4.33
2018-07-12T05:55:17.790Z,3.80
2018-07-12T05:57:47.463Z,3.60
2018-07-12T06:00:17.168Z,3.27
2018-07-12T06:02:46.871Z,3.00
2018-07-12T06:05:16.348Z,2.33
2018-07-12T06:07:46.130Z,2.40
2018-07-12T06:10:15.973Z,3.40
2018-07-12T06:12:45.530Z,2.80
2018-07-12T06:15:15.089Z,2.73
2018-07-12T06:17:44.879Z,2.50
2018-07-12T06:20:14.459Z,3.23
2018-07-12T06:22:44.099Z,3.30
2018-07-12T06:25:13.693Z,2.90
2018-07-12T06:27:43.384Z,3.10
2018-07-12T06:30:12.889Z,3.13
2018-07-12T06:32:42.554Z,3.57
2018-07-12T06:35:11.898Z,3.03
2018-07-12T06:37:41.736Z,2.73
2018-07-12T06:40:11.413Z,2.40
2018-07-12T06:42:41.253Z,2.50
2018-07-12T06:45:10.775Z,2.60
2018-07-12T06:47:40.635Z,2.70
2018-07-12T06:50:10.078Z,2.80
2018-07-12T06:52:39.857Z,2.97
2018-07-12T06:55:09.466Z,3.00
2018-07-12T06:57:39.136Z,3.00
2018-07-12T07:00:08.739Z,2.73
2018-07-12T07:02:38.688Z,2.67
2018-07-12T07:05:08.158Z,2.20
2018-07-12T07:07:37.905Z,2.33
2018-07-12T07:10:07.418Z,2.13
2018-07-12T07:12:36.802Z,1.93
2018-07-12T07:15:06.539Z,2.10
2018-07-12T07:17:36.349Z,2.23
2018-07-12T07:20:05.817Z,2.00
2018-07-12T07:22:35.993Z,1.90
2018-07-12T07:25:05.432Z,1.90
2018-07-12T07:27:34.987Z,2.27
2018-07-12T07:30:05.083Z,1.70
2018-07-12T07:32:34.666Z,2.10
2018-07-12T07:35:04.515Z,2.00
2018-07-12T07:37:34.651Z,1.93
2018-07-12T07:40:04.143Z,2.27
2018-07-12T07:42:33.598Z,2.40
2018-07-12T07:45:03.268Z,2.60
2018-07-12T07:47:32.763Z,2.23
2018-07-12T07:50:02.073Z,2.40
2018-07-12T07:52:31.987Z,2.00
2018-07-12T07:55:01.564Z,2.47
2018-07-12T07:57:31.050Z,2.50
2018-07-12T08:00:01.631Z,2.27
2018-07-12T08:02:31.331Z,2.73
2018-07-12T08:05:01.090Z,2.63
2018-07-12T08:07:31.104Z,2.47
2018-07-12T08:10:00.683Z,2.50
2018-07-12T08:12:30.325Z,2.47
2018-07-12T08:15:00.078Z,2.40
2018-07-12T08:17:29.649Z,2.00
2018-07-12T08:19:59.356Z,1.90
2018-07-12T08:22:29.448Z,1.80
2018-07-12T08:24:59.092Z,1.70
2018-07-12T08:27:28.877Z,1.63
2018-07-12T08:29:58.274Z,2.23
2018-07-12T08:32:27.892Z,4.43
2018-07-12T08:34:57.293Z,4.83
2018-07-12T08:37:26.880Z,1.70
2018-07-12T08:39:56.457Z,2.20
2018-07-12T08:42:26.013Z,1.70
2018-07-12T08:44:55.614Z,1.80
2018-07-12T08:47:25.326Z,1.50
2018-07-12T08:49:54.628Z,1.53
2018-07-12T08:52:24.245Z,1.70
2018-07-12T08:54:53.990Z,1.80
2018-07-12T08:57:23.401Z,1.63
2018-07-12T08:59:53.149Z,1.80
2018-07-12T09:02:22.930Z,2.00
2018-07-12T09:04:52.246Z,2.10
2018-07-12T09:07:22.128Z,2.30
2018-07-12T09:09:51.671Z,2.33
2018-07-12T09:12:20.877Z,2.60
2018-07-12T09:14:50.453Z,2.50
2018-07-12T09:17:20.220Z,2.87
2018-07-12T09:19:49.720Z,2.67
2018-07-12T09:22:19.343Z,3.00
2018-07-12T09:24:48.909Z,2.63
2018-07-12T09:27:18.288Z,2.77
2018-07-12T09:29:48.266Z,2.70
2018-07-12T09:32:17.740Z,2.87
2018-07-12T09:34:47.083Z,2.77
2018-07-12T09:37:16.622Z,2.80
2018-07-12T09:39:46.271Z,2.70
2018-07-12T09:42:15.905Z,3.43
2018-07-12T09:44:45.549Z,2.90
2018-07-12T09:47:15.212Z,2.63
2018-07-12T09:49:44.951Z,2.87
2018-07-12T09:52:19.761Z,3.03
2018-07-12T09:54:49.434Z,2.70
2018-07-12T09:57:29.745Z,2.60
2018-07-12T09:59:59.556Z,2.97
2018-07-12T10:02:34.065Z,3.77
2018-07-12T10:05:03.847Z,2.50
2018-07-12T10:07:38.389Z,2.97
2018-07-12T10:10:08.478Z,2.53
2018-07-12T10:12:42.894Z,2.67
2018-07-12T10:15:17.066Z,2.50
2018-07-12T10:17:51.316Z,2.50
2018-07-12T10:20:21.201Z,2.40
2018-07-12T10:22:50.407Z,2.63
2018-07-12T10:25:19.850Z,2.37
2018-07-12T10:27:49.816Z,2.50
2018-07-12T10:30:19.112Z,2.17
2018-07-12T10:32:48.548Z,2.10
2018-07-12T10:35:18.459Z,2.50
2018-07-12T10:37:47.884Z,2.13
2018-07-12T10:40:17.692Z,2.10
2018-07-12T10:42:47.331Z,2.20
2018-07-12T10:45:16.728Z,3.90
2018-07-12T10:47:46.466Z,2.83
2018-07-12T10:50:16.330Z,2.07
2018-07-12T10:52:45.907Z,2.00
2018-07-12T10:55:15.905Z,1.97
2018-07-12T10:57:45.857Z,2.40
2018-07-12T11:00:15.710Z,1.97
2018-07-12T11:02:45.665Z,2.90
2018-07-12T11:05:15.465Z,2.00
2018-07-12T11:07:45.450Z,1.83
2018-07-12T11:10:15.161Z,1.73
2018-07-12T11:12:45.305Z,1.70
2018-07-12T11:15:14.861Z,1.60
2018-07-12T11:17:44.579Z,1.93
2018-07-12T11:20:14.823Z,1.83
2018-07-12T11:22:44.935Z,2.10
2018-07-12T11:25:14.348Z,2.00
2018-07-12T11:27:43.983Z,1.80
2018-07-12T11:30:13.686Z,1.70
2018-07-12T11:32:43.224Z,2.00
2018-07-12T11:35:12.933Z,1.73
2018-07-12T11:37:42.843Z,1.87
2018-07-12T11:40:12.315Z,2.27
2018-07-12T11:42:41.893Z,1.80
2018-07-12T11:45:11.752Z,1.60
2018-07-12T11:47:41.417Z,1.80
2018-07-12T11:50:11.061Z,1.70
2018-07-12T11:52:40.831Z,2.13
2018-07-12T11:55:10.183Z,1.67
2018-07-12T11:57:39.816Z,2.20
2018-07-12T12:00:09.373Z,2.00
2018-07-12T12:02:38.866Z,1.90
2018-07-12T12:05:07.273Z,2.00
2018-07-12T12:07:37.028Z,1.93
2018-07-12T12:10:06.721Z,1.80
2018-07-12T12:12:36.443Z,1.97
2018-07-12T12:15:06.728Z,1.70
2018-07-12T12:17:36.149Z,2.20
2018-07-12T12:20:05.914Z,2.47
2018-07-12T12:22:35.620Z,2.30
2018-07-12T12:25:05.240Z,3.00
2018-07-12T12:27:34.850Z,3.60
2018-07-12T12:30:04.664Z,2.77
2018-07-12T12:32:34.195Z,3.33
2018-07-12T12:35:03.817Z,4.47
2018-07-12T12:37:34.228Z,5.93
2018-07-12T12:40:04.256Z,6.33
2018-07-12T12:42:34.134Z,3.37
2018-07-12T12:45:03.796Z,2.50
2018-07-12T12:47:33.357Z,2.10
2018-07-12T12:50:03.163Z,1.97
2018-07-12T12:52:32.644Z,2.03
2018-07-12T12:55:03.009Z,1.60
2018-07-12T12:57:38.956Z,1.53
2018-07-12T13:00:08.841Z,1.60
2018-07-12T13:02:38.495Z,1.97
2018-07-12T13:05:07.981Z,1.60
2018-07-12T13:07:37.650Z,1.47
2018-07-12T13:10:07.404Z,1.53
2018-07-12T13:12:37.154Z,1.83
2018-07-12T13:15:06.761Z,1.40
2018-07-12T13:17:36.188Z,1.67
2018-07-12T13:20:05.966Z,1.73
2018-07-12T13:22:35.700Z,1.50
2018-07-12T13:25:05.193Z,1.80
2018-07-12T13:27:35.192Z,1.57
2018-07-12T13:30:04.968Z,1.50
2018-07-12T13:32:34.460Z,1.67
2018-07-12T13:35:04.132Z,1.70
2018-07-12T13:37:34.038Z,1.63
2018-07-12T13:40:03.489Z,1.80
2018-07-12T13:42:33.350Z,1.90
2018-07-12T13:45:03.118Z,1.50
2018-07-12T13:47:32.601Z,1.57
2018-07-12T13:50:02.493Z,1.80
2018-07-12T13:52:32.514Z,1.40
2018-07-12T13:55:02.328Z,1.60
2018-07-12T13:57:32.991Z,1.63
2018-07-12T14:00:03.116Z,1.90
2018-07-12T14:02:33.014Z,1.70
2018-07-12T14:05:02.903Z,1.67
2018-07-12T14:07:32.931Z,1.70
2018-07-12T14:10:02.603Z,1.60
2018-07-12T14:12:32.635Z,1.83
2018-07-12T14:15:02.877Z,1.60
2018-07-12T14:17:32.599Z,2.80
2018-07-12T14:20:02.352Z,1.50
2018-07-12T14:22:32.390Z,1.73
2018-07-12T14:25:02.288Z,1.80
2018-07-12T14:27:32.420Z,1.70
2018-07-12T14:30:02.325Z,2.00
2018-07-12T14:32:31.815Z,1.70
2018-07-12T14:35:01.917Z,1.60
2018-07-12T14:37:32.147Z,1.90
2018-07-12T14:40:02.162Z,1.70
2018-07-12T14:42:31.770Z,1.60
2018-07-12T14:45:01.706Z,1.73
2018-07-12T14:47:31.438Z,1.60
2018-07-12T14:50:01.007Z,1.80
2018-07-12T14:52:30.934Z,1.93
2018-07-12T14:55:00.618Z,1.50
2018-07-12T14:57:30.216Z,1.73
2018-07-12T14:59:59.828Z,1.50
2018-07-12T15:02:30.008Z,1.50
2018-07-12T15:04:59.606Z,1.50
2018-07-12T15:07:29.264Z,1.57
2018-07-12T15:09:59.179Z,1.50
2018-07-12T15:12:28.585Z,1.40
2018-07-12T15:14:57.960Z,1.93
2018-07-12T15:17:27.831Z,1.40
2018-07-12T15:19:57.147Z,1.40
2018-07-12T15:22:26.554Z,1.30
2018-07-12T15:24:56.841Z,1.30
2018-07-12T15:27:26.338Z,1.50
2018-07-12T15:29:56.562Z,1.53
2018-07-12T15:32:26.564Z,1.40
2018-07-12T15:34:56.047Z,1.40
2018-07-12T15:37:25.795Z,1.40
2018-07-12T15:39:55.519Z,1.37
2018-07-12T15:42:25.185Z,1.53
2018-07-12T15:44:54.828Z,1.50
2018-07-12T15:47:24.484Z,1.60
2018-07-12T15:49:54.437Z,1.80
2018-07-12T15:52:24.001Z,1.80
2018-07-12T15:54:53.802Z,1.70
2018-07-12T15:57:23.521Z,2.17
2018-07-12T15:59:53.385Z,1.43
2018-07-12T16:02:23.083Z,1.70
2018-07-12T16:04:53.497Z,1.40
2018-07-12T16:07:23.372Z,1.60
2018-07-12T16:09:53.247Z,1.50
2018-07-12T16:12:22.977Z,1.40
2018-07-12T16:14:52.566Z,1.63
2018-07-12T16:17:22.347Z,1.70
2018-07-12T16:19:52.562Z,1.50
2018-07-12T16:22:22.311Z,1.67
2018-07-12T16:24:52.114Z,1.70
2018-07-12T16:27:21.767Z,1.90
2018-07-12T16:29:51.219Z,1.70
2018-07-12T16:32:20.878Z,1.60
2018-07-12T16:34:50.514Z,1.60
2018-07-12T16:37:20.103Z,1.80
2018-07-12T16:39:49.770Z,1.50
2018-07-12T16:42:19.683Z,2.07
2018-07-12T16:44:49.174Z,1.63
2018-07-12T16:47:18.976Z,1.80
2018-07-12T16:49:48.704Z,1.60
2018-07-12T16:52:18.145Z,1.67
2018-07-12T16:54:48.325Z,1.40
2018-07-12T16:57:18.340Z,1.67
2018-07-12T16:59:48.206Z,2.00
2018-07-12T17:02:17.758Z,1.50
2018-07-12T17:04:47.591Z,1.60
2018-07-12T17:07:17.563Z,1.67
2018-07-12T17:09:47.985Z,1.50
2018-07-12T17:12:17.877Z,1.60
2018-07-12T17:14:47.347Z,1.60
2018-07-12T17:17:16.845Z,1.60
2018-07-12T17:19:47.155Z,1.50
2018-07-12T17:22:17.444Z,1.60
2018-07-12T17:24:47.339Z,1.70
2018-07-12T17:27:17.449Z,1.60
2018-07-12T17:29:47.374Z,3.00
2018-07-12T17:32:16.961Z,1.60
2018-07-12T17:34:47.573Z,1.40
2018-07-12T17:37:17.482Z,1.17
2018-07-12T17:39:46.924Z,1.20
2018-07-12T17:42:16.599Z,1.50
2018-07-12T17:44:46.701Z,1.60
2018-07-12T17:47:16.347Z,1.67
2018-07-12T17:49:46.280Z,1.57
2018-07-12T17:52:15.885Z,1.70
2018-07-12T17:54:45.804Z,1.30
2018-07-12T17:57:15.371Z,1.43
2018-07-12T17:59:45.011Z,1.30
2018-07-12T18:02:14.744Z,1.33
2018-07-12T18:04:44.762Z,2.00
2018-07-12T18:07:14.773Z,1.43
2018-07-12T18:09:44.760Z,1.57
2018-07-12T18:12:14.258Z,1.50
2018-07-12T18:14:44.378Z,1.50
2018-07-12T18:17:14.287Z,1.63
2018-07-12T18:19:43.646Z,1.47
2018-07-12T18:22:13.453Z,1.63
2018-07-12T18:24:43.906Z,1.50
2018-07-12T18:27:13.489Z,1.60
2018-07-12T18:29:43.166Z,1.60
2018-07-12T18:32:13.090Z,1.50
2018-07-12T18:34:42.720Z,1.43
2018-07-12T18:37:12.440Z,1.50
2018-07-12T18:39:42.395Z,1.60
2018-07-12T18:42:12.220Z,1.73
2018-07-12T18:44:41.784Z,1.93
2018-07-12T18:47:11.910Z,2.00
2018-07-12T18:49:41.312Z,1.50
2018-07-12T18:52:11.036Z,1.67
2018-07-12T18:54:40.878Z,1.87
2018-07-12T18:59:46.778Z,1.40
2018-07-12T19:02:16.726Z,1.40
2018-07-12T19:04:46.845Z,1.70
2018-07-12T19:07:16.277Z,2.00
2018-07-12T19:09:46.168Z,1.63
2018-07-12T19:12:16.269Z,1.50
2018-07-12T19:14:45.792Z,1.67
2018-07-12T19:17:15.441Z,1.63
2018-07-12T19:19:45.278Z,1.80
2018-07-12T19:22:14.732Z,1.93
2018-07-12T19:24:44.964Z,1.60
2018-07-12T19:27:14.959Z,1.50
2018-07-12T19:29:44.649Z,1.60
2018-07-12T19:32:14.327Z,1.87
2018-07-12T19:34:44.603Z,1.60
2018-07-12T19:37:14.061Z,1.67
2018-07-12T19:39:44.193Z,1.47
2018-07-12T19:42:14.026Z,1.50
2018-07-12T19:44:43.964Z,1.70
2018-07-12T19:47:13.760Z,1.73
2018-07-12T19:49:43.535Z,1.87
2018-07-12T19:52:13.477Z,1.50
2018-07-12T19:54:43.367Z,1.77
2018-07-12T19:57:13.074Z,1.57
2018-07-12T19:59:42.830Z,1.70
2018-07-12T20:02:12.248Z,1.80
2018-07-12T20:04:42.338Z,1.80
2018-07-12T20:07:12.487Z,2.00
2018-07-12T20:09:42.898Z,1.50
2018-07-12T20:12:13.288Z,1.60
2018-07-12T20:14:43.765Z,1.70
2018-07-12T20:17:13.884Z,1.60
2018-07-12T20:19:44.236Z,1.63
2018-07-12T20:22:13.877Z,1.90
2018-07-12T20:24:43.883Z,1.93
2018-07-12T20:27:13.767Z,1.87
2018-07-12T20:29:43.626Z,1.70
2018-07-12T20:32:13.251Z,1.80
2018-07-12T20:34:42.953Z,1.90
2018-07-12T20:37:12.828Z,2.10
2018-07-12T20:39:42.458Z,2.07
2018-07-12T20:42:12.343Z,2.37
2018-07-12T20:44:41.935Z,1.90
2018-07-12T20:47:11.907Z,1.70
2018-07-12T20:49:41.368Z,1.73
2018-07-12T20:52:11.049Z,2.33
2018-07-12T20:54:41.505Z,1.57
2018-07-12T20:57:10.906Z,2.00
2018-07-12T20:59:40.788Z,1.73
2018-07-12T21:02:10.878Z,1.60
2018-07-12T21:04:40.433Z,1.80
2018-07-12T21:07:10.490Z,1.80
2018-07-12T21:09:40.007Z,1.57
2018-07-12T21:12:09.807Z,1.60
2018-07-12T21:14:40.745Z,2.10
2018-07-12T21:17:10.275Z,2.10
2018-07-12T21:19:39.919Z,1.97
2018-07-12T21:22:09.977Z,2.00
2018-07-12T21:24:40.608Z,1.90
2018-07-12T21:27:10.694Z,2.00
2018-07-12T21:29:40.665Z,1.90
2018-07-12T21:32:10.394Z,1.80
2018-07-12T21:34:40.298Z,2.00
2018-07-12T21:37:10.393Z,1.87
2018-07-12T21:39:40.212Z,1.57
2018-07-12T21:42:10.517Z,2.10
2018-07-12T21:44:40.260Z,1.90
2018-07-12T21:47:09.968Z,2.10
2018-07-12T21:49:40.026Z,2.00
2018-07-12T21:52:09.869Z,3.60
2018-07-12T21:54:39.833Z,3.20
2018-07-12T21:57:09.674Z,2.80
2018-07-12T21:59:39.251Z,2.40
2018-07-12T22:02:09.300Z,2.33
2018-07-12T22:04:39.230Z,2.50
2018-07-12T22:08:22.296Z,2.70
2018-07-12T22:10:52.960Z,2.47
2018-07-12T22:13:23.250Z,1.90
2018-07-12T22:15:53.041Z,2.40
2018-07-12T22:18:22.859Z,2.20
2018-07-12T22:20:52.475Z,1.97
2018-07-12T22:23:22.263Z,2.43
2018-07-12T22:25:51.785Z,4.37
2018-07-12T22:28:21.740Z,2.17
2018-07-12T22:30:51.252Z,2.00
2018-07-12T22:33:20.795Z,2.17
2018-07-12T22:35:50.400Z,2.20
2018-07-12T22:38:20.173Z,2.10
2018-07-12T22:40:49.698Z,2.90
2018-07-12T22:43:19.325Z,1.90
2018-07-12T22:45:48.644Z,2.23
2018-07-12T22:48:18.213Z,2.30
2018-07-12T22:50:48.194Z,2.00
2018-07-12T22:53:17.891Z,1.70
2018-07-12T22:55:47.653Z,2.17
2018-07-12T22:58:17.287Z,2.00
2018-07-12T23:00:47.547Z,2.00
2018-07-12T23:03:17.361Z,4.60
2018-07-12T23:05:46.857Z,4.23
2018-07-12T23:08:16.903Z,3.43
2018-07-12T23:10:46.745Z,2.10
2018-07-12T23:13:16.968Z,2.40
2018-07-12T23:15:46.637Z,2.00
2018-07-12T23:18:16.239Z,2.10
2018-07-12T23:20:46.003Z,2.03
2018-07-12T23:23:15.759Z,2.00
2018-07-12T23:25:45.292Z,1.90
2018-07-12T23:28:14.946Z,2.00
2018-07-12T23:30:44.716Z,2.03
2018-07-12T23:33:14.236Z,2.53
2018-07-12T23:35:43.841Z,2.00
2018-07-12T23:38:13.754Z,2.30
2018-07-12T23:40:43.334Z,2.40
2018-07-12T23:43:12.994Z,2.20
2018-07-12T23:45:42.603Z,2.40
2018-07-12T23:48:12.172Z,2.33
2018-07-12T23:50:41.838Z,2.00
2018-07-12T23:53:11.472Z,1.90
2018-07-12T23:55:41.186Z,2.13
2018-07-12T23:58:10.514Z,2.57
